Terminal Aerodrome Forecast
Issued by NWS Mt. Holly, NJ

Home | Current Version | Previous Version | Text Only | Print | Product List | Glossary On
Versions: 1 2 3 4 5 6 7 8 9 10 11 12 13 14 15
000
FTUS41 KPHI 061143
TAFILG
TAF
KILG 061143Z 0612/0712 02006KT P6SM OVC200
     FM061400 07009KT P6SM FEW030 OVC100
     FM061800 10012KT P6SM -RA BKN025 OVC060
     FM062000 09010KT 5SM -RA BR OVC015
     FM062100 07009KT 4SM -RA BR OVC009
     FM070300 04013KT 3SM -DZ BR OVC005=

USA.gov is the U.S. government's official web portal to all federal, state and local government web resources and services.